Time;durP1;ratioP1;P1;durP2;ratioP2;P2;SDS_P1;SDS_P2;PMS_P1;PMS_P2;Temp;Humidity;BMP_temperature;BMP_pressure;BME280_temperature;BME280_humidity;BME280_pressure;Samples;Min_cycle;Max_cycle;Signal;HPM_P1;HPM_P2
2021/08/15 00:00:25;;;;;;;;;29.67;26.00;;;;;21.89;84.93;99737.88;2401842;31;3574102;-55
2021/08/15 00:02:54;;;;;;;;;23.00;23.00;;;;;21.88;84.55;99738.91;2387687;31;2847190;-54
2021/08/15 00:05:23;;;;;;;;;28.33;26.33;;;;;22.03;84.17;99730.03;2400900;31;3588741;-56
2021/08/15 00:07:56;;;;;;;;;24.33;24.00;;;;;22.01;84.25;99724.75;2399072;39;3588696;-55
2021/08/15 00:10:24;;;;;;;;;23.00;23.00;;;;;21.88;84.36;99727.97;2402581;31;3583502;-56
2021/08/15 00:12:52;;;;;;;;;27.33;25.67;;;;;21.96;83.68;99718.94;2390431;31;3591880;-56
2021/08/15 00:15:22;;;;;;;;;24.00;24.00;;;;;21.38;86.16;99709.66;2389338;31;3586645;-56
2021/08/15 00:17:50;;;;;;;;;24.33;24.33;;;;;21.74;84.72;99711.34;2401763;31;3586685;-55
2021/08/15 00:20:20;;;;;;;;;28.67;26.33;;;;;21.62;85.42;99711.66;2390965;31;3601248;-56
2021/08/15 00:22:48;;;;;;;;;27.00;27.00;;;;;21.78;83.61;99715.47;2389593;31;3585616;-56
2021/08/15 00:25:18;;;;;;;;;25.00;24.00;;;;;21.36;86.28;99708.09;2389912;31;3589739;-55
2021/08/15 00:27:48;;;;;;;;;28.33;26.00;;;;;21.78;84.42;99710.00;2388581;31;3598138;-55
2021/08/15 00:30:18;;;;;;;;;26.67;26.67;;;;;21.52;85.01;99704.59;2401623;39;3599189;-56
2021/08/15 00:32:47;;;;;;;;;27.33;26.67;;;;;21.58;85.04;99709.41;2390150;31;3599184;-54
2021/08/15 00:35:16;;;;;;;;;25.67;23.67;;;;;21.34;86.24;99705.50;2390930;31;3583480;-55
2021/08/15 00:37:44;;;;;;;;;25.67;23.67;;;;;21.07;87.76;99700.25;2390612;31;3586621;-56
2021/08/15 00:40:13;;;;;;;;;30.33;26.33;;;;;21.03;87.82;99705.16;2390939;31;3589755;-56
2021/08/15 00:42:42;;;;;;;;;27.00;27.00;;;;;21.23;86.37;99709.38;2391960;31;3593921;-56
2021/08/15 00:45:12;;;;;;;;;25.67;24.67;;;;;21.48;84.35;99709.53;2390508;31;3602278;-56
2021/08/15 00:47:41;;;;;;;;;28.67;24.67;;;;;21.02;86.96;99712.50;2388758;31;3610718;-55
2021/08/15 00:50:10;;;;;;;;;24.00;24.00;;;;;20.59;88.71;99699.75;2399744;39;3600187;-55
2021/08/15 00:52:39;;;;;;;;;28.00;26.33;;;;;20.43;89.93;99688.66;2403254;31;3596035;-55
2021/08/15 00:55:11;;;;;;;;;28.67;26.00;;;;;20.13;90.71;99693.50;2391580;31;3591838;-55
2021/08/15 00:57:44;;;;;;;;;32.00;26.33;;;;;20.59;89.67;99699.75;2389168;31;3604349;-56
2021/08/15 01:00:16;;;;;;;;;26.00;24.67;;;;;20.77;87.47;99700.56;2400899;31;3602613;-56
2021/08/15 01:02:50;;;;;;;;;27.00;26.00;;;;;20.96;86.43;99704.13;2400087;31;3591818;-56
2021/08/15 01:05:19;;;;;;;;;23.67;21.67;;;;;20.94;87.06;99698.81;2402276;31;3579357;-55
2021/08/15 01:07:47;;;;;;;;;25.00;24.00;;;;;20.83;87.02;99693.63;2391949;31;3587647;-56
2021/08/15 01:10:18;;;;;;;;;29.33;28.33;;;;;20.93;87.47;99691.63;2387076;54;2841849;-55
2021/08/15 01:12:48;;;;;;;;;27.00;24.33;;;;;20.88;88.15;99691.25;2403313;31;3591822;-55
2021/08/15 01:15:19;;;;;;;;;32.00;27.33;;;;;20.47;89.77;99684.63;2391507;31;3606456;-56
2021/08/15 01:17:47;;;;;;;;;27.00;26.00;;;;;20.47;90.20;99684.63;2392161;31;3588700;-53
2021/08/15 01:20:16;;;;;;;;;24.00;23.00;;;;;20.96;87.79;99688.59;2389580;31;2728342;-50
2021/08/15 01:22:47;;;;;;;;;30.67;27.00;;;;;20.70;88.25;99688.59;2400450;39;3578281;-54
2021/08/15 01:25:16;;;;;;;;;26.00;23.67;;;;;20.70;88.57;99691.31;2405252;31;3602261;-51
2021/08/15 01:27:45;;;;;;;;;29.00;27.33;;;;;20.63;89.74;99692.09;2391370;31;3603695;-51
2021/08/15 01:30:15;;;;;;;;;28.00;25.33;;;;;20.15;91.74;99681.44;2390797;31;3592947;-53
2021/08/15 01:32:45;;;;;;;;;27.00;25.33;;;;;20.38;91.12;99687.28;2392089;31;3598068;-53
2021/08/15 01:35:14;;;;;;;;;26.33;24.00;;;;;20.45;90.07;99689.38;2390604;31;3591893;-52
2021/08/15 01:37:42;;;;;;;;;26.00;24.33;;;;;20.46;89.86;99694.69;2391141;31;3593928;-51
2021/08/15 01:40:13;;;;;;;;;28.00;26.00;;;;;20.26;90.98;99688.53;2390477;46;3587695;-54
2021/08/15 01:42:41;;;;;;;;;27.00;25.00;;;;;20.33;90.65;99681.44;2393819;31;3600190;-52
2021/08/15 01:45:12;;;;;;;;;25.33;25.33;;;;;20.40;89.49;99687.09;2391253;31;3596096;-55
2021/08/15 01:47:40;;;;;;;;;30.33;28.00;;;;;20.17;91.24;99692.22;2391151;31;3590820;-56
2021/08/15 01:50:09;;;;;;;;;26.33;26.33;;;;;19.91;91.96;99682.06;2391866;31;3594051;-57
2021/08/15 01:52:38;;;;;;;;;25.33;25.33;;;;;19.83;92.27;99678.41;2391057;31;3600146;-55
2021/08/15 01:55:08;;;;;;;;;27.67;25.67;;;;;20.21;91.01;99679.97;2390459;39;3593895;-56
2021/08/15 01:57:37;;;;;;;;;25.00;23.00;;;;;20.22;91.15;99673.50;2390730;31;3591822;-56
2021/08/15 02:00:07;;;;;;;;;27.00;24.67;;;;;20.30;91.17;99670.84;2390840;31;3590775;-56
2021/08/15 02:02:42;;;;;;;;;35.33;30.00;;;;;20.12;91.83;99673.59;2388397;31;3589860;-56
2021/08/15 02:05:18;;;;;;;;;31.33;29.00;;;;;19.98;92.04;99675.97;2403883;31;3592887;-55
2021/08/15 02:07:47;;;;;;;;;25.33;24.00;;;;;19.97;91.60;99685.19;2390665;31;3591864;-56
2021/08/15 02:10:16;;;;;;;;;26.00;24.67;;;;;19.89;92.38;99673.19;2390540;31;3598071;-56
2021/08/15 02:12:45;;;;;;;;;28.00;25.33;;;;;19.84;92.62;99670.06;2391309;31;3597065;-56
2021/08/15 02:15:13;;;;;;;;;31.00;29.00;;;;;19.85;93.01;99671.78;2390642;31;3567892;-56
2021/08/15 02:17:42;;;;;;;;;29.00;27.67;;;;;19.92;92.22;99672.88;2391311;31;3597077;-56
2021/08/15 02:20:16;;;;;;;;;22.00;20.00;;;;;20.01;92.01;99671.09;2387693;31;2837740;-55
2021/08/15 02:22:46;;;;;;;;;31.67;27.00;;;;;20.01;92.05;99671.09;2391525;31;3583493;-55
2021/08/15 02:25:17;;;;;;;;;32.00;29.00;;;;;19.98;92.40;99674.09;2391523;31;3562648;-55
2021/08/15 02:27:46;;;;;;;;;28.67;28.33;;;;;19.99;91.87;99675.00;2390919;39;3576200;-56
2021/08/15 02:30:17;;;;;;;;;32.33;29.33;;;;;19.90;92.76;99674.88;2390934;31;3577226;-56
2021/08/15 02:32:47;;;;;;;;;29.00;28.00;;;;;19.99;91.88;99677.72;2390048;31;3584530;-56
2021/08/15 02:35:16;;;;;;;;;26.67;26.00;;;;;20.08;92.36;99669.44;2391609;31;3570981;-55
2021/08/15 02:37:49;;;;;;;;;28.00;27.00;;;;;20.14;91.91;99671.56;2391116;31;3581385;-55
2021/08/15 02:40:21;;;;;;;;;30.75;24.25;;;;;19.94;92.36;99664.56;2391337;31;3616829;-56
2021/08/15 02:42:51;;;;;;;;;29.00;28.00;;;;;19.84;93.16;99669.22;2402978;31;3584554;-55
2021/08/15 02:45:24;;;;;;;;;30.67;27.67;;;;;19.77;92.92;99674.41;2390724;31;3575251;-56
2021/08/15 02:47:54;;;;;;;;;30.33;30.00;;;;;19.74;93.15;99669.25;2387092;31;2841867;-55
2021/08/15 02:50:23;;;;;;;;;31.67;26.67;;;;;19.67;93.53;99665.47;2402334;31;3582462;-55
2021/08/15 02:52:52;;;;;;;;;27.33;25.67;;;;;19.37;94.02;99667.44;2389628;31;3584545;-55
2021/08/15 02:55:20;;;;;;;;;29.67;27.00;;;;;19.46;93.47;99668.44;2391176;31;3583505;-55
2021/08/15 02:57:49;;;;;;;;;31.00;28.33;;;;;19.29;94.06;99667.34;2390326;31;3580383;-56
2021/08/15 03:00:18;;;;;;;;;30.00;28.00;;;;;19.20;93.98;99668.28;2389355;31;3568913;-55
2021/08/15 03:02:46;;;;;;;;;26.33;25.67;;;;;19.25;94.01;99668.69;2389528;31;3587640;-55
2021/08/15 03:05:15;;;;;;;;;30.67;27.67;;;;;19.07;94.58;99666.72;2389612;39;3585620;-55
2021/08/15 03:07:44;;;;;;;;;29.67;28.00;;;;;18.88;95.46;99672.25;2390526;31;3574142;-55
2021/08/15 03:10:13;;;;;;;;;30.67;30.00;;;;;18.96;95.34;99663.34;2390773;31;3571033;-54
2021/08/15 03:12:41;;;;;;;;;29.00;28.67;;;;;18.85;95.89;99661.66;2390247;31;3574182;-56
2021/08/15 03:15:11;;;;;;;;;28.67;26.67;;;;;18.96;95.67;99666.94;2390038;31;3581491;-54
2021/08/15 03:17:40;;;;;;;;;31.33;28.33;;;;;19.27;93.45;99672.09;2390304;31;3576225;-54
2021/08/15 03:20:10;;;;;;;;;30.00;29.00;;;;;19.29;93.59;99664.63;2391293;31;3585580;-56
2021/08/15 03:22:38;;;;;;;;;34.00;29.33;;;;;19.21;93.46;99664.53;2392584;31;3586649;-55
2021/08/15 03:25:08;;;;;;;;;32.33;30.00;;;;;19.21;94.01;99675.41;2391846;31;3591830;-55
2021/08/15 03:27:36;;;;;;;;;30.33;30.00;;;;;19.24;93.81;99666.94;2391562;31;3583480;-55
2021/08/15 03:30:05;;;;;;;;;28.33;27.00;;;;;19.45;92.56;99670.25;2391307;31;3576227;-55
2021/08/15 03:32:34;;;;;;;;;29.00;26.00;;;;;19.70;91.23;99667.88;2388193;31;3592918;-55
2021/08/15 03:35:03;;;;;;;;;26.00;26.00;;;;;19.47;92.33;99673.69;2402500;31;3582519;-54
2021/08/15 03:37:32;;;;;;;;;31.00;30.00;;;;;19.12;94.11;99671.75;2389979;31;3589775;-55
2021/08/15 03:40:00;;;;;;;;;30.33;29.67;;;;;19.02;94.80;99671.75;2388896;39;3581450;-55
2021/08/15 03:42:29;;;;;;;;;32.67;31.67;;;;;18.94;95.28;99668.94;2390901;31;3594943;-56
2021/08/15 03:44:57;;;;;;;;;29.67;28.67;;;;;19.32;93.82;99677.09;2390953;31;3592855;-55
2021/08/15 03:47:31;;;;;;;;;33.00;29.33;;;;;19.65;91.22;99675.63;2390497;31;3582463;-56
2021/08/15 03:50:02;;;;;;;;;33.67;30.00;;;;;19.20;93.76;99671.84;2389826;31;3593906;-55
2021/08/15 03:52:31;;;;;;;;;32.67;30.00;;;;;19.20;94.48;99673.72;2389838;31;3583523;-56
2021/08/15 03:54:59;;;;;;;;;35.33;31.67;;;;;19.10;94.53;99676.47;2390630;31;3586612;-55
2021/08/15 03:57:27;;;;;;;;;37.00;31.00;;;;;19.20;94.34;99662.81;2391141;31;3605363;-54
2021/08/15 03:59:56;;;;;;;;;30.33;28.00;;;;;19.01;94.37;99666.47;2390109;31;3583573;-55
2021/08/15 04:02:24;;;;;;;;;34.33;27.33;;;;;19.32;93.83;99669.75;2391519;31;3598113;-56
2021/08/15 04:04:53;;;;;;;;;28.33;26.33;;;;;19.20;93.52;99665.53;2388115;31;3594008;-56
2021/08/15 04:07:22;;;;;;;;;32.00;31.00;;;;;19.13;94.70;99662.56;2402565;31;3587722;-55
2021/08/15 04:09:50;;;;;;;;;32.33;31.33;;;;;19.07;94.38;99661.28;2391828;31;3598088;-55
2021/08/15 04:12:19;;;;;;;;;32.00;30.33;;;;;19.37;93.15;99662.00;2392225;31;3590815;-56
2021/08/15 04:14:47;;;;;;;;;33.67;30.00;;;;;19.41;93.02;99668.03;2390679;31;3592875;-56
2021/08/15 04:17:16;;;;;;;;;33.33;30.33;;;;;19.52;92.21;99665.09;2391355;31;3593935;-55
2021/08/15 04:19:44;;;;;;;;;29.67;29.67;;;;;19.65;92.48;99664.72;2390708;39;3591853;-56
2021/08/15 04:22:14;;;;;;;;;35.00;30.33;;;;;19.79;92.00;99661.50;2390951;31;3602273;-54
2021/08/15 04:24:42;;;;;;;;;31.00;30.00;;;;;19.66;92.68;99663.69;2391680;31;3598107;-56
2021/08/15 04:27:10;;;;;;;;;34.00;32.00;;;;;19.92;90.43;99661.97;2391753;31;3596039;-56
2021/08/15 04:29:39;;;;;;;;;32.33;30.00;;;;;20.22;89.05;99662.59;2392322;31;3590787;-54
2021/08/15 04:32:08;;;;;;;;;37.00;32.00;;;;;20.23;88.88;99658.84;2391374;31;3612689;-54
2021/08/15 04:34:36;;;;;;;;;33.33;31.33;;;;;20.32;89.12;99667.94;2391143;31;3591913;-56
2021/08/15 04:37:05;;;;;;;;;32.67;31.00;;;;;20.45;88.10;99656.63;2390481;31;3595018;-56
2021/08/15 04:39:33;;;;;;;;;31.67;31.00;;;;;20.41;89.10;99660.72;2391124;31;3602253;-55
2021/08/15 04:42:02;;;;;;;;;26.00;24.50;;;;;20.57;87.33;99664.44;2388594;31;2830437;-55
2021/08/15 04:44:30;;;;;;;;;34.00;32.00;;;;;20.76;87.45;99663.38;2390869;31;3600151;-53
2021/08/15 04:46:59;;;;;;;;;29.67;29.67;;;;;20.96;86.25;99665.91;2391645;31;3583480;-56
2021/08/15 04:49:27;;;;;;;;;31.67;30.00;;;;;21.01;84.88;99668.97;2391029;31;3591825;-56
2021/08/15 04:51:56;;;;;;;;;32.33;30.33;;;;;21.19;83.41;99667.00;2391841;31;3598131;-55
2021/08/15 04:54:27;;;;;;;;;32.00;31.00;;;;;21.31;84.34;99670.34;2391291;31;3593932;-55
2021/08/15 04:56:57;;;;;;;;;31.67;30.00;;;;;21.65;83.63;99673.06;2391120;31;3597038;-56
2021/08/15 04:59:27;;;;;;;;;33.33;30.00;;;;;21.79;82.09;99679.75;2391084;31;3593949;-54
2021/08/15 05:01:56;;;;;;;;;31.33;29.33;;;;;22.06;80.03;99678.59;2390455;39;3589762;-56
2021/08/15 05:04:25;;;;;;;;;28.00;26.67;;;;;22.04;80.10;99677.94;2391625;31;3586648;-57
2021/08/15 05:06:53;;;;;;;;;31.33;29.00;;;;;22.17;79.17;99682.91;2391904;31;3591876;-55
2021/08/15 05:09:26;;;;;;;;;32.67;30.00;;;;;21.78;81.16;99671.72;2392424;31;3594978;-57
2021/08/15 05:11:54;;;;;;;;;30.33;23.33;;;;;22.36;76.73;99689.97;2390701;31;3599141;-56
2021/08/15 05:14:23;;;;;;;;;32.67;29.67;;;;;22.38;75.92;99689.75;2387063;46;3612690;-56
2021/08/15 05:16:52;;;;;;;;;29.00;29.00;;;;;22.72;76.74;99684.09;2402600;31;3583531;-56
2021/08/15 05:19:21;;;;;;;;;28.00;26.33;;;;;24.13;70.69;99677.97;2390483;31;3589762;-56
2021/08/15 05:21:49;;;;;;;;;25.33;25.00;;;;;25.61;65.02;99692.81;2391401;31;3587679;-58
2021/08/15 05:24:18;;;;;;;;;26.33;25.33;;;;;25.92;62.71;99700.03;2390052;31;3591901;-58
2021/08/15 05:26:47;;;;;;;;;25.75;25.75;;;;;24.90;67.54;99691.56;2391524;31;3600155;-58
2021/08/15 05:29:15;;;;;;;;;25.67;25.67;;;;;25.65;63.89;99703.47;2401762;39;3590844;-57
2021/08/15 05:31:44;;;;;;;;;19.33;19.33;;;;;24.61;67.09;99684.97;2390067;46;3563725;-56
2021/08/15 05:34:12;;;;;;;;;23.33;22.67;;;;;23.88;71.11;99684.47;2391027;31;3585648;-57
2021/08/15 05:36:41;;;;;;;;;27.00;25.67;;;;;23.80;69.53;99692.75;2391092;31;3594923;-55
2021/08/15 05:39:09;;;;;;;;;23.33;22.67;;;;;23.59;71.12;99697.94;2391145;31;3584530;-55
2021/08/15 05:41:38;;;;;;;;;24.67;24.67;;;;;24.01;69.82;99688.47;2391696;31;3592863;-55
2021/08/15 05:44:06;;;;;;;;;28.67;26.33;;;;;24.23;68.46;99695.03;2391317;31;3595988;-56
2021/08/15 05:46:34;;;;;;;;;22.67;22.33;;;;;25.11;64.47;99693.56;2390543;31;3571839;-56
2021/08/15 05:49:03;;;;;;;;;26.67;25.33;;;;;24.63;66.13;99693.88;2390353;39;3586605;-56
2021/08/15 05:51:31;;;;;;;;;25.33;25.33;;;;;24.35;67.95;99700.94;2390999;31;3582455;-54
2021/08/15 05:54:00;;;;;;;;;26.00;26.00;;;;;24.22;68.50;99694.16;2391168;31;3580355;-56
2021/08/15 05:56:31;;;;;;;;;29.67;24.67;;;;;24.06;69.68;99691.53;2392029;31;3586650;-54
2021/08/15 05:59:00;;;;;;;;;24.00;24.00;;;;;23.70;71.88;99686.59;2391118;31;3583501;-55
2021/08/15 06:01:33;;;;;;;;;30.33;29.67;;;;;23.57;72.32;99697.28;2390180;31;3572478;-54
2021/08/15 06:04:02;;;;;;;;;30.67;28.67;;;;;23.32;73.09;99686.41;2390967;31;3578280;-56
2021/08/15 06:06:30;;;;;;;;;26.33;24.33;;;;;23.38;72.86;99693.94;2391590;31;3573151;-55
2021/08/15 06:08:59;;;;;;;;;29.67;28.67;;;;;23.25;73.83;99688.16;2391871;31;3586620;-54
2021/08/15 06:11:27;;;;;;;;;25.67;25.00;;;;;23.61;73.00;99691.25;2391632;31;3583536;-56
2021/08/15 06:13:57;;;;;;;;;32.33;27.00;;;;;23.55;72.74;99688.38;2391464;31;3589754;-56
2021/08/15 06:16:26;;;;;;;;;30.00;26.33;;;;;24.45;69.17;99691.44;2391610;31;3600215;-56
2021/08/15 06:18:54;;;;;;;;;25.00;25.00;;;;;24.35;70.38;99689.97;2392817;31;3598099;-56
2021/08/15 06:21:25;;;;;;;;;33.00;26.50;;;;;24.19;70.48;99686.31;2393514;31;4359523;-56
2021/08/15 06:23:53;;;;;;;;;27.33;25.00;;;;;23.72;70.61;99690.00;2404235;31;3580376;-57
2021/08/15 06:26:22;;;;;;;;;26.33;25.00;;;;;24.12;71.36;99685.34;2391476;31;3580352;-56
2021/08/15 06:28:53;;;;;;;;;26.67;23.67;;;;;24.24;71.03;99683.03;2392057;31;3602206;-57
2021/08/15 06:31:24;;;;;;;;;25.33;23.33;;;;;24.41;70.10;99683.72;2393322;31;3595972;-56
2021/08/15 06:33:53;;;;;;;;;27.33;27.33;;;;;24.31;69.07;99693.09;2393166;31;3591885;-56
2021/08/15 06:36:22;;;;;;;;;32.75;27.75;;;;;24.48;69.28;99684.75;2391894;31;3606446;-57
2021/08/15 06:38:50;;;;;;;;;26.67;26.67;;;;;25.04;68.09;99690.75;2405319;31;3602249;-56
2021/08/15 06:41:19;;;;;;;;;26.33;25.00;;;;;25.73;65.33;99689.59;2392965;31;3593885;-57
2021/08/15 06:43:48;;;;;;;;;28.00;24.00;;;;;25.90;62.92;99698.50;2392573;31;3599105;-57
2021/08/15 06:46:16;;;;;;;;;22.33;22.00;;;;;27.69;58.78;99696.41;2392197;31;3582475;-57
2021/08/15 06:48:45;;;;;;;;;22.75;22.75;;;;;31.01;49.76;99714.34;2392729;31;3586626;-57
2021/08/15 06:51:14;;;;;;;;;22.00;20.67;;;;;33.06;44.39;99725.84;2403607;31;3580400;-57
2021/08/15 06:53:43;;;;;;;;;19.33;19.33;;;;;33.28;44.01;99718.59;2392125;31;3567860;-57
2021/08/15 06:56:12;;;;;;;;;22.75;22.50;;;;;34.41;41.91;99718.22;2392696;31;3600252;-57
2021/08/15 06:58:40;;;;;;;;;21.33;19.67;;;;;34.73;40.34;99732.50;2405028;31;3582442;-57
2021/08/15 07:01:13;;;;;;;;;20.67;20.67;;;;;31.99;46.24;99719.06;2390766;31;3587686;-57
2021/08/15 07:03:44;;;;;;;;;23.43;20.14;;;;;29.82;51.77;99716.78;2397654;31;3581410;-57
2021/08/15 07:06:13;;;;;;;;;20.00;20.00;;;;;31.99;46.21;99721.84;2391958;31;3577258;-57
2021/08/15 07:08:42;;;;;;;;;20.00;20.00;;;;;29.24;53.76;99712.00;2392367;31;3585608;-56
2021/08/15 07:11:11;;;;;;;;;20.75;20.75;;;;;28.19;57.40;99719.97;2404643;31;3577215;-56
2021/08/15 07:13:40;;;;;;;;;19.00;19.00;;;;;27.99;58.11;99716.31;2404104;31;3572030;-57
2021/08/15 07:16:08;;;;;;;;;23.00;22.00;;;;;28.18;58.36;99718.28;2392149;31;3589703;-56
2021/08/15 07:18:37;;;;;;;;;24.33;22.67;;;;;32.42;47.59;99731.94;2392656;31;3583485;-56
2021/08/15 07:21:08;;;;;;;;;20.29;18.57;;;;;30.27;52.40;99721.47;2398160;31;3568874;-57
2021/08/15 07:23:37;;;;;;;;;21.50;21.50;;;;;27.72;60.05;99702.38;2393265;31;3593965;-57
2021/08/15 07:26:06;;;;;;;;;22.67;22.67;;;;;27.47;61.73;99715.00;2404331;31;3580379;-57
2021/08/15 07:28:35;;;;;;;;;22.67;21.67;;;;;28.86;57.87;99709.06;2390373;31;3598107;-56
2021/08/15 07:31:04;;;;;;;;;23.00;22.00;;;;;29.30;55.84;99710.28;2390820;31;3585607;-56
2021/08/15 07:33:33;;;;;;;;;19.33;17.33;;;;;28.67;59.33;99710.72;2389477;39;3564727;-57
2021/08/15 07:36:03;;;;;;;;;22.00;22.00;;;;;27.93;59.43;99703.34;2404114;31;3591786;-57
2021/08/15 07:38:33;;;;;;;;;26.00;22.67;;;;;28.31;58.68;99706.44;2400371;31;3594930;-57
2021/08/15 07:41:03;;;;;;;;;25.50;22.50;;;;;29.14;57.49;99708.00;2390666;31;3586594;-57
2021/08/15 07:43:31;;;;;;;;;25.00;23.33;;;;;29.33;55.77;99704.31;2403424;39;3582479;-57
2021/08/15 07:46:00;;;;;;;;;21.33;21.33;;;;;28.69;57.43;99702.25;2389004;39;3578374;-57
2021/08/15 07:48:29;;;;;;;;;23.25;22.00;;;;;29.32;55.65;99702.63;2404840;31;3593908;-57
2021/08/15 07:50:58;;;;;;;;;22.67;22.00;;;;;30.10;54.13;99710.06;2403770;31;3587675;-58
2021/08/15 07:53:28;;;;;;;;;24.00;21.33;;;;;29.94;54.34;99706.72;2392477;31;3586650;-58
2021/08/15 07:55:58;;;;;;;;;23.00;22.00;;;;;30.39;52.52;99715.00;2391103;31;3596012;-58
2021/08/15 07:58:27;;;;;;;;;20.00;16.00;;;;;30.37;52.63;99711.59;2388983;31;3562656;-58
2021/08/15 08:00:58;;;;;;;;;19.67;19.67;;;;;30.16;52.82;99709.16;2404419;31;3583517;-58
2021/08/15 08:03:27;;;;;;;;;22.75;22.75;;;;;29.48;54.80;99704.94;2392305;31;3581429;-58
2021/08/15 08:05:56;;;;;;;;;22.33;21.00;;;;;29.61;55.55;99705.97;2403836;31;3577251;-58
2021/08/15 08:08:25;;;;;;;;;23.00;23.00;;;;;29.25;55.93;99696.25;2393523;31;3593961;-58
2021/08/15 08:10:54;;;;;;;;;23.33;21.00;;;;;29.88;54.24;99696.50;2407247;31;1891866;-57
2021/08/15 08:13:23;;;;;;;;;26.67;22.67;;;;;30.14;53.50;99689.97;2404150;31;3604302;-59
2021/08/15 08:15:53;;;;;;;;;19.00;18.00;;;;;30.66;51.80;99694.56;2390847;31;2821047;-58
2021/08/15 08:18:23;;;;;;;;;21.00;21.00;;;;;31.13;50.54;99698.66;2403785;39;3584514;-58
2021/08/15 08:20:52;;;;;;;;;21.67;21.00;;;;;31.45;50.65;99693.84;2404747;31;3578288;-58
2021/08/15 08:23:21;;;;;;;;;23.00;20.67;;;;;31.91;49.51;99689.69;2392409;31;3576181;-58
2021/08/15 08:25:49;;;;;;;;;21.33;20.33;;;;;31.54;49.89;99688.00;2392443;31;3573072;-59
2021/08/15 08:28:18;;;;;;;;;21.00;19.00;;;;;31.57;49.28;99693.94;2392904;31;3565925;-57
2021/08/15 08:30:46;;;;;;;;;19.00;18.00;;;;;32.11;49.17;99683.84;2392329;31;3553353;-59
2021/08/15 08:33:15;;;;;;;;;17.00;17.00;;;;;32.05;48.31;99681.19;2390276;31;2830418;-58
2021/08/15 08:35:44;;;;;;;;;22.33;19.33;;;;;32.37;48.59;99676.22;2404146;31;3579356;-58
2021/08/15 08:38:12;;;;;;;;;18.00;18.00;;;;;32.45;47.56;99673.09;2393117;31;3577239;-58
2021/08/15 08:40:43;;;;;;;;;19.00;19.00;;;;;32.50;47.52;99687.16;2390758;31;3575140;-58
2021/08/15 08:43:11;;;;;;;;;21.00;19.00;;;;;32.77;47.08;99675.59;2404814;31;3565772;-59
2021/08/15 08:45:41;;;;;;;;;21.33;21.33;;;;;32.35;46.09;99675.59;2392887;31;3576178;-59
2021/08/15 08:48:10;;;;;;;;;19.00;18.00;;;;;32.73;45.72;99674.38;2392507;31;3562755;-59
2021/08/15 08:50:41;;;;;;;;;21.33;18.33;;;;;32.34;45.45;99676.69;2389051;31;3565781;-58
2021/08/15 08:53:12;;;;;;;;;19.00;18.29;;;;;33.24;44.59;99672.84;2411229;31;3544936;-58
2021/08/15 08:55:40;;;;;;;;;20.00;17.00;;;;;33.58;44.47;99664.72;2392042;31;3540766;-58
2021/08/15 08:58:09;;;;;;;;;20.33;19.00;;;;;33.04;45.44;99664.03;2392335;31;3577215;-58
2021/08/15 09:00:38;;;;;;;;;18.00;18.00;;;;;33.07;45.23;99660.75;2389937;31;3546021;-58
2021/08/15 09:03:07;;;;;;;;;18.50;16.00;;;;;32.91;45.37;99654.78;2401398;31;2823122;-57
2021/08/15 09:05:38;;;;;;;;;21.00;19.71;;;;;33.17;44.24;99653.50;2399419;31;3579339;-58
2021/08/15 09:08:07;;;;;;;;;21.00;20.67;;;;;33.30;45.25;99655.16;2388925;31;3574194;-58
2021/08/15 09:10:39;;;;;;;;;21.00;20.67;;;;;32.87;44.49;99639.69;2403719;31;3567900;-58
2021/08/15 09:13:10;;;;;;;;;21.00;20.00;;;;;32.18;46.39;99638.44;2392664;31;3573152;-57
2021/08/15 09:15:54;;;;;;;;;23.00;21.00;;;;;32.99;44.50;99640.56;2393619;31;3592891;-58
2021/08/15 09:18:31;;;;;;;;;20.33;20.33;;;;;33.29;43.60;99641.53;2403582;39;3573045;-57
2021/08/15 09:21:00;;;;;;;;;22.75;20.50;;;;;33.15;43.93;99638.13;2393061;31;3585580;-58
2021/08/15 09:23:31;;;;;;;;;22.67;20.33;;;;;34.08;42.91;99639.03;2404128;31;3599145;-58
2021/08/15 09:26:32;;;;;;;;;21.33;21.33;;;;;33.11;43.94;99631.38;2393146;31;3589715;-58
2021/08/15 09:29:00;;;;;;;;;23.00;22.33;;;;;32.99;44.41;99625.78;2393370;31;1888792;-58
2021/08/15 09:31:33;;;;;;;;;23.00;20.67;;;;;33.95;42.60;99631.78;2404426;31;3581441;-58
2021/08/15 09:34:04;;;;;;;;;25.71;24.14;;;;;33.76;41.52;99625.56;2400034;31;3595996;-58
2021/08/15 09:36:42;;;;;;;;;20.33;18.67;;;;;34.31;39.60;99624.94;2391653;31;3556391;-58
2021/08/15 09:39:12;;;;;;;;;23.00;20.33;;;;;34.46;41.07;99629.94;2394120;31;1891898;-58
2021/08/15 09:41:51;;;;;;;;;20.71;19.86;;;;;33.63;39.95;99611.94;2411137;31;3577226;-58
2021/08/15 09:44:24;;;;;;;;;18.67;18.67;;;;;34.32;40.25;99617.44;2404393;31;3553317;-58
2021/08/15 09:47:12;;;;;;;;;22.43;21.29;;;;;34.39;39.16;99612.53;2398876;31;3583500;-58
2021/08/15 09:49:47;;;;;;;;;21.57;20.43;;;;;34.22;39.95;99614.47;2398711;31;3580352;-58
2021/08/15 09:52:18;;;;;;;;;17.33;17.33;;;;;34.06;38.24;99605.81;2392680;31;3568918;-58
2021/08/15 09:54:58;;;;;;;;;19.00;19.00;;;;;34.68;37.79;99612.50;2392164;31;3571000;-58
2021/08/15 09:57:33;;;;;;;;;19.00;15.33;;;;;34.91;37.92;99605.84;2393533;31;3554379;-58
2021/08/15 10:00:24;;;;;;;;;19.00;19.00;;;;;34.14;38.62;99601.78;2395118;31;1884610;-58
2021/08/15 10:02:54;;;;;;;;;19.67;19.67;;;;;34.07;39.70;99601.09;2400764;39;3576197;-58
2021/08/15 10:05:26;;;;;;;;;21.71;21.71;;;;;33.87;39.34;99602.38;2410139;39;3578300;-59
2021/08/15 10:07:55;;;;;;;;;23.00;22.00;;;;;34.02;39.60;99593.47;2392740;31;3588678;-58
2021/08/15 10:10:24;;;;;;;;;19.67;18.33;;;;;34.37;39.62;99594.38;2400510;39;2830398;-58
2021/08/15 10:12:54;;;;;;;;;20.67;20.67;;;;;34.38;39.22;99590.47;2402042;31;3586605;-58
2021/08/15 10:15:24;;;;;;;;;18.00;16.67;;;;;34.21;39.78;99593.28;2401243;31;3564727;-58
2021/08/15 10:17:54;;;;;;;;;19.67;18.67;;;;;34.26;38.19;99594.19;2399809;31;3565758;-58
2021/08/15 10:20:28;;;;;;;;;18.67;16.33;;;;;33.94;37.91;99590.22;2403406;31;3560549;-58
2021/08/15 10:23:18;;;;;;;;;19.00;17.33;;;;;33.97;39.14;99584.16;2393511;31;3569956;-58
2021/08/15 10:25:47;;;;;;;;;19.00;18.00;;;;;34.89;36.98;99580.13;2392076;31;3564827;-58
2021/08/15 10:28:37;;;;;;;;;18.00;18.00;;;;;35.11;36.62;99583.00;2392134;31;3558509;-58
2021/08/15 10:31:06;;;;;;;;;19.00;16.67;;;;;35.22;37.65;99582.03;2393151;31;3559563;-57
2021/08/15 10:33:53;;;;;;;;;14.67;14.67;;;;;35.48;36.65;99577.63;2391977;31;3535625;-58
2021/08/15 10:36:28;;;;;;;;;18.00;17.00;;;;;35.52;35.12;99563.97;2388132;31;3559543;-58
2021/08/15 10:39:00;;;;;;;;;17.00;16.00;;;;;35.36;35.26;99563.81;2404287;31;3553297;-58
2021/08/15 10:41:47;;;;;;;;;20.00;16.67;;;;;35.63;35.15;99562.16;2392699;31;3568930;-58
2021/08/15 10:44:16;;;;;;;;;16.00;15.00;;;;;35.11;34.39;99558.72;2389616;31;2808535;-58
2021/08/15 10:47:12;;;;;;;;;18.00;15.33;;;;;35.43;34.94;99555.22;2393071;31;3555447;-58
2021/08/15 10:49:57;;;;;;;;;14.33;14.33;;;;;35.80;34.75;99560.97;2392064;31;3535546;-59
2021/08/15 10:52:37;;;;;;;;;16.67;16.67;;;;;35.49;34.09;99542.97;2391691;31;3568985;-57
2021/08/15 10:55:19;;;;;;;;;19.33;17.33;;;;;35.10;36.42;99536.66;2389000;39;3572079;-58
2021/08/15 10:57:54;;;;;;;;;15.33;14.33;;;;;34.82;36.50;99544.06;2399531;31;2806532;-59
2021/08/15 11:00:30;;;;;;;;;14.67;14.67;;;;;34.97;35.82;99549.88;2404243;31;3531388;-58
2021/08/15 11:03:22;;;;;;;;;20.00;17.00;;;;;35.36;34.15;99541.47;2390611;31;3565797;-58
2021/08/15 11:05:51;;;;;;;;;17.33;16.67;;;;;34.81;36.50;99541.53;2393157;31;3564823;-59
2021/08/15 11:08:32;;;;;;;;;17.00;17.00;;;;;34.41;36.94;99540.63;2389556;31;3556382;-58
2021/08/15 11:11:11;;;;;;;;;16.33;16.33;;;;;34.71;35.92;99537.50;2402149;31;2822042;-59
2021/08/15 11:13:39;;;;;;;;;18.00;15.00;;;;;35.08;35.45;99534.13;2403919;31;3548113;-58
2021/08/15 11:16:27;;;;;;;;;16.00;16.00;;;;;35.21;34.45;99538.47;2389879;31;3551606;-59